Orlinda, Tennessee
Current Conditions -  °F | °C
As of 10:15 AM on Wednesday 28 Jan 2015 (Local Time) from KM91 Reporting Station
Clear Clear  
Wind Chill: 30°   Ceiling: Unl
Heat Index: 36°   Visibility: 10mi
Dew Point: 19°   Wind: 7mph
Humidity: 52%   Direction: 180°S
Pressure: 30.33"   Gusts: NA
Location:  36.6°N, 86.72°W
Report Text: KM91 281615Z AUTO 18006KT 10SM CLR 02/M07 A3033 RMK
Loading
Personal Weather Stations






























Interactive Weather Map New forecast layout! Learn more

10-Day Weather Forecast

Advertisements
Track Severe Weather on mobile